Time;durP1;ratioP1;P1;durP2;ratioP2;P2;SDS_P1;SDS_P2;PMS_P1;PMS_P2;Temp;Humidity;BMP_temperature;BMP_pressure;BME280_temperature;BME280_humidity;BME280_pressure;Samples;Min_cycle;Max_cycle;Signal;HPM_P1;HPM_P2
2021/04/21 04:41:11;;;;;;;16.10;9.82;;;;;;;;;;4983430;23;20078;-71
2021/04/21 04:43:39;;;;;;;15.65;10.18;;;;;;;;;;4980803;28;20030;-71
2021/04/21 04:46:05;;;;;;;19.73;10.23;;;;;;;;;;4985952;28;20040;-71
2021/04/21 04:48:50;;;;;;;18.02;10.13;;;;;;;;;;4984505;28;20035;-71
2021/04/21 04:51:17;;;;;;;18.38;11.50;;;;;;;;;;4983808;28;20089;-72
2021/04/21 04:53:43;;;;;;;19.15;11.18;;;;;;;;;;4983618;28;20440;-71
2021/04/21 04:56:10;;;;;;;19.23;12.52;;;;;;;;;;4985478;28;20858;-72
2021/04/21 04:58:36;;;;;;;17.10;11.05;;;;;;;;;;4985143;28;20034;-70
2021/04/21 05:01:06;;;;;;;19.95;12.93;;;;;;;;;;4983659;28;20030;-73
2021/04/21 05:03:51;;;;;;;18.42;13.05;;;;;;;;;;4984979;28;20111;-72
2021/04/21 05:06:20;;;;;;;19.77;12.95;;;;;;;;;;4983766;28;20139;-72
2021/04/21 05:08:49;;;;;;;19.85;13.68;;;;;;;;;;4983635;28;20031;-72
2021/04/21 05:11:17;;;;;;;24.02;13.52;;;;;;;;;;4985396;28;20138;-71
2021/04/21 05:13:50;;;;;;;18.90;12.50;;;;;;;;;;4979621;28;20558;-72
2021/04/21 05:16:25;;;;;;;19.55;12.27;;;;;;;;;;4983258;28;20037;-72
2021/04/21 05:19:10;;;;;;;17.40;11.57;;;;;;;;;;4983736;28;20019;-73
2021/04/21 05:21:42;;;;;;;17.35;11.95;;;;;;;;;;4980961;28;20037;-74
2021/04/21 05:24:20;;;;;;;18.45;11.63;;;;;;;;;;4983003;28;20039;-74
2021/04/21 05:27:06;;;;;;;18.35;11.88;;;;;;;;;;4977065;28;20041;-74
2021/04/21 05:45:54;;;;;;;21.02;11.73;;;;;;;;;;5031721;23;20042;-71
2021/04/21 05:48:30;;;;;;;19.30;12.05;;;;;;;;;;4968174;28;20062;-71
2021/04/21 05:51:15;;;;;;;18.40;10.95;;;;;;;;;;4974928;28;20031;-71
2021/04/21 05:53:46;;;;;;;18.83;10.90;;;;;;;;;;4970945;28;20034;-74
2021/04/21 05:56:30;;;;;;;17.85;11.65;;;;;;;;;;4948247;28;20043;-74
2021/04/21 05:59:04;;;;;;;20.20;11.55;;;;;;;;;;4965044;28;20117;-72
2021/04/21 06:01:32;;;;;;;19.27;11.95;;;;;;;;;;4951071;28;20026;-74
2021/04/21 06:03:58;;;;;;;20.30;12.70;;;;;;;;;;4966373;28;20074;-76
2021/04/21 06:06:25;;;;;;;20.30;12.10;;;;;;;;;;4961602;28;20027;-76
2021/04/21 06:08:51;;;;;;;19.77;11.43;;;;;;;;;;4968681;28;20073;-75
2021/04/21 06:11:18;;;;;;;19.63;12.45;;;;;;;;;;4948974;28;20089;-75
2021/04/21 06:13:44;;;;;;;20.83;12.35;;;;;;;;;;4947015;28;20040;-75
2021/04/21 06:16:11;;;;;;;18.48;12.90;;;;;;;;;;4965503;28;20509;-76
2021/04/21 06:18:37;;;;;;;17.35;11.70;;;;;;;;;;4948116;28;20074;-73
2021/04/21 06:21:14;;;;;;;17.88;11.50;;;;;;;;;;4946183;28;21134;-70
2021/04/21 06:23:41;;;;;;;19.58;12.27;;;;;;;;;;4963004;28;20444;-70
2021/04/21 06:26:07;;;;;;;16.65;11.18;;;;;;;;;;4964186;28;20031;-72
2021/04/21 06:28:33;;;;;;;18.00;11.23;;;;;;;;;;4964330;28;20043;-71
2021/04/21 06:31:10;;;;;;;19.55;11.70;;;;;;;;;;4945436;28;20031;-69
2021/04/21 06:33:38;;;;;;;16.73;11.57;;;;;;;;;;4960817;28;20031;-74
2021/04/21 06:36:05;;;;;;;17.65;12.00;;;;;;;;;;4960662;28;20099;-74
2021/04/21 06:38:32;;;;;;;19.25;11.93;;;;;;;;;;4955584;29;20118;-73
2021/04/21 06:41:01;;;;;;;17.70;12.30;;;;;;;;;;4938194;29;20035;-75
2021/04/21 06:43:30;;;;;;;23.38;11.80;;;;;;;;;;4961477;28;20399;-74
2021/04/21 06:45:57;;;;;;;19.23;12.13;;;;;;;;;;4974317;28;20484;-72
2021/04/21 06:48:30;;;;;;;19.88;12.55;;;;;;;;;;4956732;28;20073;-71
2021/04/21 06:51:05;;;;;;;20.48;12.65;;;;;;;;;;4957132;28;20053;-70
2021/04/21 06:53:32;;;;;;;20.98;13.60;;;;;;;;;;4955342;28;20039;-73
2021/04/21 06:55:58;;;;;;;26.10;15.27;;;;;;;;;;4946041;28;20114;-72
2021/04/21 06:58:27;;;;;;;33.58;17.70;;;;;;;;;;4944732;28;20250;-72
2021/04/21 07:00:53;;;;;;;26.25;14.80;;;;;;;;;;4943395;28;20035;-72
2021/04/21 07:03:19;;;;;;;23.20;14.30;;;;;;;;;;4962780;28;20027;-73
2021/04/21 07:05:47;;;;;;;27.90;16.40;;;;;;;;;;4938845;28;20070;-72
2021/04/21 07:08:13;;;;;;;22.77;14.98;;;;;;;;;;4957217;28;20031;-72
2021/04/21 07:10:52;;;;;;;29.15;17.20;;;;;;;;;;4938575;28;20034;-73
2021/04/21 07:13:30;;;;;;;24.73;15.18;;;;;;;;;;4963250;28;20067;-74
2021/04/21 07:16:03;;;;;;;27.30;16.60;;;;;;;;;;4938833;28;20054;-73
2021/04/21 07:18:31;;;;;;;28.38;16.35;;;;;;;;;;4942159;28;20057;-74
2021/04/21 07:20:59;;;;;;;21.83;14.20;;;;;;;;;;4964932;28;20027;-72
2021/04/21 07:23:25;;;;;;;37.28;19.45;;;;;;;;;;4945488;28;20487;-74
2021/04/21 07:25:52;;;;;;;36.40;17.95;;;;;;;;;;4940138;28;20023;-73
2021/04/21 07:28:21;;;;;;;25.25;14.95;;;;;;;;;;4959223;28;20032;-73
2021/04/21 07:30:48;;;;;;;27.83;14.90;;;;;;;;;;4944182;28;20136;-73
2021/04/21 07:33:31;;;;;;;22.67;14.43;;;;;;;;;;4950284;28;20034;-72
2021/04/21 07:36:09;;;;;;;22.90;14.88;;;;;;;;;;4973748;28;20382;-73
2021/04/21 07:38:39;;;;;;;22.58;14.00;;;;;;;;;;4956073;28;20054;-72
2021/04/21 07:41:06;;;;;;;24.02;14.82;;;;;;;;;;4973431;28;20031;-72
2021/04/21 07:43:41;;;;;;;27.83;14.98;;;;;;;;;;4973866;28;20045;-73
2021/04/21 07:46:17;;;;;;;25.23;14.75;;;;;;;;;;4946790;28;20154;-74
2021/04/21 07:48:46;;;;;;;27.55;16.27;;;;;;;;;;4961905;28;20039;-75
2021/04/21 07:51:20;;;;;;;26.15;15.57;;;;;;;;;;4936252;28;20058;-75
2021/04/21 07:54:01;;;;;;;33.78;18.02;;;;;;;;;;4944721;28;20027;-74
2021/04/21 07:56:34;;;;;;;24.27;15.30;;;;;;;;;;4955336;28;20544;-73
2021/04/21 07:59:20;;;;;;;22.45;13.45;;;;;;;;;;4941782;28;20439;-73
2021/04/21 08:01:47;;;;;;;22.73;13.85;;;;;;;;;;4942771;29;20031;-71
2021/04/21 08:04:16;;;;;;;32.38;16.35;;;;;;;;;;4958822;28;20077;-73
2021/04/21 08:06:42;;;;;;;33.08;18.30;;;;;;;;;;4944884;28;20102;-70
2021/04/21 08:09:08;;;;;;;25.42;14.15;;;;;;;;;;4964545;28;20110;-70
2021/04/21 08:11:35;;;;;;;19.35;12.88;;;;;;;;;;4973543;28;20027;-72
2021/04/21 08:14:01;;;;;;;21.27;12.82;;;;;;;;;;4973654;28;20034;-72
2021/04/21 08:16:31;;;;;;;30.95;14.52;;;;;;;;;;4956125;28;20038;-73
2021/04/21 08:18:58;;;;;;;31.90;14.70;;;;;;;;;;4955877;28;20030;-73
2021/04/21 08:21:43;;;;;;;34.50;15.05;;;;;;;;;;4936414;29;20094;-72
2021/04/21 08:24:14;;;;;;;28.00;12.77;;;;;;;;;;4935472;29;20042;-73
2021/04/21 08:26:43;;;;;;;20.83;12.02;;;;;;;;;;4954139;29;20039;-71
2021/04/21 08:29:11;;;;;;;17.95;10.82;;;;;;;;;;4938094;28;20519;-74
2021/04/21 08:31:41;;;;;;;20.83;12.00;;;;;;;;;;4943945;28;20384;-72
2021/04/21 08:34:07;;;;;;;15.07;9.93;;;;;;;;;;4959078;28;20026;-73
2021/04/21 08:36:34;;;;;;;21.67;10.98;;;;;;;;;;4936444;29;20031;-73
2021/04/21 08:39:00;;;;;;;21.45;10.63;;;;;;;;;;4953552;28;20570;-72
2021/04/21 08:41:27;;;;;;;17.45;9.85;;;;;;;;;;4972878;28;20038;-71
2021/04/21 08:43:54;;;;;;;15.32;10.20;;;;;;;;;;4972964;28;20067;-72
2021/04/21 08:46:23;;;;;;;18.88;9.73;;;;;;;;;;4955701;28;20038;-74
2021/04/21 08:48:49;;;;;;;15.18;9.98;;;;;;;;;;4955530;28;20121;-74
2021/04/21 08:51:19;;;;;;;15.57;9.88;;;;;;;;;;4955607;28;20038;-73
2021/04/21 08:54:00;;;;;;;18.70;8.97;;;;;;;;;;4955432;28;20074;-73
2021/04/21 08:56:29;;;;;;;11.52;9.23;;;;;;;;;;4955784;28;20436;-73
2021/04/21 08:58:56;;;;;;;16.00;10.45;;;;;;;;;;4956057;28;20031;-73
2021/04/21 09:01:23;;;;;;;18.15;10.65;;;;;;;;;;4954782;28;20027;-73
2021/04/21 09:03:49;;;;;;;13.13;8.00;;;;;;;;;;4956936;28;20475;-71
2021/04/21 09:06:19;;;;;;;11.77;8.25;;;;;;;;;;4958718;28;20023;-73
2021/04/21 09:08:50;;;;;;;15.75;9.05;;;;;;;;;;4957519;28;20035;-73
2021/04/21 09:11:17;;;;;;;16.33;10.77;;;;;;;;;;4939185;29;20038;-73
2021/04/21 09:13:43;;;;;;;13.65;9.10;;;;;;;;;;4939468;29;20028;-72
2021/04/21 09:16:10;;;;;;;16.13;9.35;;;;;;;;;;4939221;29;20031;-75
2021/04/21 09:18:36;;;;;;;7.72;6.15;;;;;;;;;;4939651;29;20031;-72
2021/04/21 09:21:04;;;;;;;11.48;6.65;;;;;;;;;;4939614;29;20114;-75
2021/04/21 09:23:37;;;;;;;11.18;7.07;;;;;;;;;;4935374;29;20039;-73
2021/04/21 09:26:12;;;;;;;13.10;7.50;;;;;;;;;;4939018;29;20485;-73
2021/04/21 09:28:41;;;;;;;11.43;6.97;;;;;;;;;;4938940;29;20046;-71
2021/04/21 09:31:12;;;;;;;12.18;8.38;;;;;;;;;;4938849;29;20064;-72
2021/04/21 09:33:38;;;;;;;11.82;8.13;;;;;;;;;;4938799;29;20039;-72
2021/04/21 09:36:08;;;;;;;11.77;7.80;;;;;;;;;;4955806;29;20388;-73
2021/04/21 09:38:34;;;;;;;14.38;8.85;;;;;;;;;;4938827;29;20468;-72
2021/04/21 09:41:02;;;;;;;11.65;9.20;;;;;;;;;;4938280;29;20090;-71
2021/04/21 09:43:39;;;;;;;12.02;8.50;;;;;;;;;;4938590;29;20054;-72
2021/04/21 09:46:17;;;;;;;13.45;8.70;;;;;;;;;;4939118;29;20511;-73
2021/04/21 09:48:45;;;;;;;12.30;8.95;;;;;;;;;;4938521;29;20062;-73
2021/04/21 09:51:16;;;;;;;13.50;9.57;;;;;;;;;;4938804;29;20488;-73
2021/04/21 09:53:47;;;;;;;12.55;8.15;;;;;;;;;;4940179;29;20035;-73
2021/04/21 09:56:15;;;;;;;15.35;9.05;;;;;;;;;;4955803;28;20542;-75
2021/04/21 09:58:53;;;;;;;21.75;11.82;;;;;;;;;;4956455;28;20055;-73
2021/04/21 10:01:25;;;;;;;16.95;9.52;;;;;;;;;;4939421;29;20346;-71
2021/04/21 10:04:10;;;;;;;13.52;7.97;;;;;;;;;;4938606;29;20090;-75
2021/04/21 10:06:37;;;;;;;238.05;190.40;;;;;;;;;;4938591;29;20031;-72
2021/04/21 10:09:21;;;;;;;12.52;8.77;;;;;;;;;;4938147;29;20118;-72
2021/04/21 10:11:51;;;;;;;8.60;7.00;;;;;;;;;;4938538;29;20031;-71
2021/04/21 10:14:23;;;;;;;16.35;9.93;;;;;;;;;;4955899;28;20024;-71
2021/04/21 10:16:50;;;;;;;22.50;12.18;;;;;;;;;;4938874;29;20035;-68
2021/04/21 10:19:16;;;;;;;13.20;9.95;;;;;;;;;;4952842;29;20039;-69
2021/04/21 10:21:42;;;;;;;16.67;11.85;;;;;;;;;;4937805;29;20387;-70
2021/04/21 10:24:08;;;;;;;22.88;12.15;;;;;;;;;;4955249;29;20111;-71
2021/04/21 10:26:34;;;;;;;15.85;12.55;;;;;;;;;;4955854;29;20035;-72
2021/04/21 10:29:02;;;;;;;19.85;11.60;;;;;;;;;;4955709;29;20383;-73
2021/04/21 10:31:28;;;;;;;15.23;10.15;;;;;;;;;;4945427;28;20396;-73
2021/04/21 10:33:55;;;;;;;20.33;11.75;;;;;;;;;;4935692;29;20066;-72
2021/04/21 10:36:21;;;;;;;17.80;10.48;;;;;;;;;;4937750;29;20034;-71
2021/04/21 10:38:47;;;;;;;33.38;19.50;;;;;;;;;;4955584;29;20555;-73
2021/04/21 10:41:35;;;;;;;18.48;10.85;;;;;;;;;;4938377;29;20039;-70
2021/04/21 10:44:08;;;;;;;21.27;13.57;;;;;;;;;;4954899;29;20407;-72
2021/04/21 10:47:04;;;;;;;15.63;10.93;;;;;;;;;;4938221;29;20396;-70
2021/04/21 10:49:55;;;;;;;16.75;11.05;;;;;;;;;;4943030;29;20043;-73
2021/04/21 10:52:41;;;;;;;16.50;11.38;;;;;;;;;;4955127;29;20030;-73
2021/04/21 10:55:08;;;;;;;11.80;9.27;;;;;;;;;;4948409;28;20538;-75
2021/04/21 10:57:38;;;;;;;13.55;10.00;;;;;;;;;;4957337;28;20030;-73
2021/04/21 11:00:12;;;;;;;17.87;10.10;;;;;;;;;;4974824;28;20073;-74
2021/04/21 11:02:44;;;;;;;16.38;9.98;;;;;;;;;;4974550;28;20026;-74
2021/04/21 11:05:12;;;;;;;17.17;10.13;;;;;;;;;;4957055;28;20093;-73
2021/04/21 11:07:41;;;;;;;16.17;10.63;;;;;;;;;;4974095;28;20037;-73
2021/04/21 11:10:29;;;;;;;16.53;10.70;;;;;;;;;;4974033;28;20022;-73
2021/04/21 11:12:56;;;;;;;10.43;7.93;;;;;;;;;;4955892;28;20039;-73
2021/04/21 11:15:50;;;;;;;12.82;8.82;;;;;;;;;;4956767;28;20066;-73
2021/04/21 11:18:27;;;;;;;17.83;11.93;;;;;;;;;;4956238;28;20579;-71
2021/04/21 11:20:54;;;;;;;13.00;8.50;;;;;;;;;;4974074;28;20475;-72
2021/04/21 11:23:38;;;;;;;13.73;11.95;;;;;;;;;;4974205;28;20023;-72
2021/04/21 11:26:41;;;;;;;10.15;8.00;;;;;;;;;;4930824;29;20140;-71
2021/04/21 11:29:20;;;;;;;11.90;8.43;;;;;;;;;;4954407;28;20480;-73
2021/04/21 11:31:48;;;;;;;12.30;8.20;;;;;;;;;;4935466;29;20086;-72
2021/04/21 11:34:17;;;;;;;22.17;12.95;;;;;;;;;;4948264;28;20069;-74
2021/04/21 11:36:43;;;;;;;16.77;10.73;;;;;;;;;;4954646;29;20027;-73
2021/04/21 11:39:09;;;;;;;8.32;6.45;;;;;;;;;;4954592;29;20181;-72
2021/04/21 11:41:39;;;;;;;9.52;7.13;;;;;;;;;;4958436;28;20034;-70
2021/04/21 11:44:05;;;;;;;7.20;5.85;;;;;;;;;;4961462;28;20047;-71
2021/04/21 11:46:49;;;;;;;9.23;6.10;;;;;;;;;;4945556;28;20171;-71
2021/04/21 11:49:35;;;;;;;10.90;8.98;;;;;;;;;;4955320;28;20046;-73
2021/04/21 11:52:02;;;;;;;9.93;5.90;;;;;;;;;;4945523;28;20026;-74
2021/04/21 11:54:28;;;;;;;8.15;7.32;;;;;;;;;;4953733;28;20027;-70
2021/04/21 11:57:09;;;;;;;11.30;5.88;;;;;;;;;;4961531;28;20490;-73
2021/04/21 11:59:40;;;;;;;17.05;8.75;;;;;;;;;;4945019;28;20112;-73
2021/04/21 12:02:12;;;;;;;15.50;11.68;;;;;;;;;;4957102;28;20038;-73
2021/04/21 12:04:38;;;;;;;15.45;10.15;;;;;;;;;;4943128;28;20116;-72
2021/04/21 12:07:04;;;;;;;14.32;8.20;;;;;;;;;;4963951;28;20035;-73
2021/04/21 12:09:35;;;;;;;12.30;7.53;;;;;;;;;;4946968;28;20061;-72
2021/04/21 12:12:06;;;;;;;48.65;36.50;;;;;;;;;;4943001;28;20035;-74
2021/04/21 12:14:32;;;;;;;19.20;9.75;;;;;;;;;;4964408;28;20023;-72
2021/04/21 12:17:01;;;;;;;17.02;9.00;;;;;;;;;;4962983;28;20030;-73
2021/04/21 12:19:28;;;;;;;10.32;5.45;;;;;;;;;;4961094;28;20036;-78
2021/04/21 12:21:54;;;;;;;53.50;34.17;;;;;;;;;;4946633;28;20106;-72
2021/04/21 12:24:21;;;;;;;16.65;8.45;;;;;;;;;;4954900;28;20420;-73
2021/04/21 12:26:47;;;;;;;19.85;13.52;;;;;;;;;;4960515;28;20023;-74
2021/04/21 12:29:16;;;;;;;24.45;15.65;;;;;;;;;;4961943;28;20049;-75
2021/04/21 12:31:46;;;;;;;12.75;7.50;;;;;;;;;;4938284;28;20033;-75
2021/04/21 12:34:14;;;;;;;20.45;10.05;;;;;;;;;;4958264;28;20038;-73
2021/04/21 12:36:44;;;;;;;54.05;18.77;;;;;;;;;;4943872;28;20027;-74
2021/04/21 12:39:12;;;;;;;16.15;8.18;;;;;;;;;;4943013;28;20488;-75
2021/04/21 12:41:42;;;;;;;21.55;9.18;;;;;;;;;;4959336;28;20035;-75
2021/04/21 12:44:14;;;;;;;24.15;16.48;;;;;;;;;;4957251;28;20050;-74
2021/04/21 12:46:40;;;;;;;6.90;5.63;;;;;;;;;;4946976;28;20026;-73
2021/04/21 12:49:12;;;;;;;8.05;5.47;;;;;;;;;;4941864;28;20125;-74
2021/04/21 12:51:45;;;;;;;7.95;6.18;;;;;;;;;;4940276;29;20059;-74
2021/04/21 12:54:29;;;;;;;9.68;7.28;;;;;;;;;;4936281;29;20040;-73
2021/04/21 12:56:56;;;;;;;6.40;5.25;;;;;;;;;;4937220;29;20031;-71
2021/04/21 12:59:22;;;;;;;10.90;7.40;;;;;;;;;;4936765;29;20035;-72
2021/04/21 13:01:48;;;;;;;14.27;12.88;;;;;;;;;;4936573;29;20130;-72
2021/04/21 13:04:19;;;;;;;6.93;5.63;;;;;;;;;;4936908;29;20028;-72
2021/04/21 13:06:46;;;;;;;13.30;9.18;;;;;;;;;;4936544;29;20039;-74
2021/04/21 13:09:17;;;;;;;13.73;8.57;;;;;;;;;;4936460;29;20047;-72
2021/04/21 13:11:44;;;;;;;14.95;12.40;;;;;;;;;;4936870;29;20036;-72
2021/04/21 13:14:10;;;;;;;13.25;6.50;;;;;;;;;;4936101;29;20032;-73
2021/04/21 13:16:41;;;;;;;14.32;9.52;;;;;;;;;;4936278;29;20035;-73
2021/04/21 13:19:24;;;;;;;14.35;9.68;;;;;;;;;;4936401;29;20396;-72
2021/04/21 13:22:01;;;;;;;19.60;10.80;;;;;;;;;;4936584;28;20039;-74
2021/04/21 13:24:27;;;;;;;7.63;5.43;;;;;;;;;;4951827;28;20039;-73
2021/04/21 13:27:03;;;;;;;33.40;20.50;;;;;;;;;;4976025;28;20030;-75
2021/04/21 13:29:37;;;;;;;22.92;12.50;;;;;;;;;;4958777;28;20031;-73
2021/04/21 13:32:15;;;;;;;22.38;9.02;;;;;;;;;;4975886;28;20037;-75
2021/04/21 13:34:47;;;;;;;31.42;14.05;;;;;;;;;;4978082;28;20061;-73
2021/04/21 13:37:17;;;;;;;40.03;17.42;;;;;;;;;;4958335;28;20039;-73
2021/04/21 13:39:43;;;;;;;37.60;17.20;;;;;;;;;;4976422;28;20530;-75
2021/04/21 13:42:15;;;;;;;42.03;18.95;;;;;;;;;;4961163;28;20273;-75
2021/04/21 13:44:43;;;;;;;16.95;8.90;;;;;;;;;;4954516;28;20460;-73
2021/04/21 13:47:12;;;;;;;15.90;6.65;;;;;;;;;;4954554;29;20126;-73
2021/04/21 13:49:38;;;;;;;11.82;6.28;;;;;;;;;;4953828;28;20045;-73
2021/04/21 13:52:13;;;;;;;11.90;7.88;;;;;;;;;;4954882;29;20122;-74
2021/04/21 13:54:44;;;;;;;17.65;9.85;;;;;;;;;;4955667;29;20531;-74
2021/04/21 13:57:17;;;;;;;16.15;9.27;;;;;;;;;;4954664;29;20038;-72
2021/04/21 13:59:43;;;;;;;14.93;8.32;;;;;;;;;;4954257;29;20472;-72
2021/04/21 14:02:14;;;;;;;19.02;11.15;;;;;;;;;;4953900;28;20038;-77
2021/04/21 14:04:43;;;;;;;9.63;6.75;;;;;;;;;;4954341;29;20035;-72
2021/04/21 14:07:09;;;;;;;8.55;6.00;;;;;;;;;;4956046;29;20035;-71
2021/04/21 14:09:40;;;;;;;10.60;7.75;;;;;;;;;;4954247;29;20035;-72
2021/04/21 14:12:09;;;;;;;9.80;6.80;;;;;;;;;;4953978;29;20555;-71
2021/04/21 14:14:35;;;;;;;10.88;9.75;;;;;;;;;;4954758;29;20126;-73
2021/04/21 14:17:02;;;;;;;26.55;13.65;;;;;;;;;;4955908;29;20027;-70
2021/04/21 14:19:28;;;;;;;16.52;7.47;;;;;;;;;;4945565;29;20123;-72
2021/04/21 14:21:54;;;;;;;17.08;8.02;;;;;;;;;;4935794;29;20059;-72
2021/04/21 14:24:20;;;;;;;19.77;11.88;;;;;;;;;;4936921;29;20388;-69
2021/04/21 14:26:48;;;;;;;12.05;9.48;;;;;;;;;;4936866;29;20107;-71
2021/04/21 14:29:14;;;;;;;10.63;6.07;;;;;;;;;;4935480;29;20146;-71
2021/04/21 14:31:40;;;;;;;11.02;6.65;;;;;;;;;;4936794;29;20032;-71
2021/04/21 14:34:06;;;;;;;13.32;8.65;;;;;;;;;;4935461;29;20040;-71
2021/04/21 14:36:33;;;;;;;12.77;7.47;;;;;;;;;;4936543;29;20059;-72
2021/04/21 14:38:59;;;;;;;6.93;4.90;;;;;;;;;;4937139;29;20031;-72
2021/04/21 14:41:26;;;;;;;6.30;5.63;;;;;;;;;;4947617;29;20473;-72
2021/04/21 14:43:52;;;;;;;5.82;4.63;;;;;;;;;;4944950;29;20026;-71
2021/04/21 14:46:22;;;;;;;7.68;5.13;;;;;;;;;;4964133;28;20389;-72
2021/04/21 14:48:48;;;;;;;12.63;8.68;;;;;;;;;;4965861;28;20134;-72
2021/04/21 14:51:14;;;;;;;7.20;5.80;;;;;;;;;;4963330;28;20370;-73
2021/04/21 14:53:40;;;;;;;4.72;4.22;;;;;;;;;;4962749;28;20026;-72
2021/04/21 14:56:06;;;;;;;9.13;8.02;;;;;;;;;;4963339;28;20035;-74
2021/04/21 14:58:32;;;;;;;8.82;4.20;;;;;;;;;;4964300;28;20365;-73
2021/04/21 15:00:58;;;;;;;7.15;4.35;;;;;;;;;;4971292;28;20037;-72
2021/04/21 15:03:24;;;;;;;15.18;9.85;;;;;;;;;;4974278;28;20031;-73
2021/04/21 15:05:50;;;;;;;11.35;5.57;;;;;;;;;;4974373;28;20368;-73
2021/04/21 15:08:16;;;;;;;9.93;6.55;;;;;;;;;;4965470;28;20460;-72
2021/04/21 15:10:43;;;;;;;9.82;6.95;;;;;;;;;;4946009;28;20035;-73
2021/04/21 15:13:09;;;;;;;8.45;4.30;;;;;;;;;;4945924;28;20030;-73
2021/04/21 15:15:35;;;;;;;15.20;8.48;;;;;;;;;;4946384;28;20106;-72
2021/04/21 15:18:02;;;;;;;22.45;9.90;;;;;;;;;;4962089;28;20027;-71
2021/04/21 15:20:28;;;;;;;14.43;5.68;;;;;;;;;;4946013;28;20065;-72
2021/04/21 15:22:54;;;;;;;27.50;10.30;;;;;;;;;;4937911;29;20086;-70
2021/04/21 15:25:22;;;;;;;20.20;9.88;;;;;;;;;;4954801;29;20106;-71
2021/04/21 15:27:49;;;;;;;10.13;7.10;;;;;;;;;;4954736;29;20705;-71
2021/04/21 15:30:15;;;;;;;11.00;7.70;;;;;;;;;;4954990;29;20416;-71
2021/04/21 15:32:42;;;;;;;11.77;9.23;;;;;;;;;;4954930;29;20392;-69
2021/04/21 15:35:09;;;;;;;11.65;8.85;;;;;;;;;;4954777;29;20085;-70
2021/04/21 15:37:35;;;;;;;11.70;8.90;;;;;;;;;;4937560;29;20020;-71
2021/04/21 15:40:05;;;;;;;14.57;8.57;;;;;;;;;;4937518;29;20093;-72
2021/04/21 15:42:32;;;;;;;13.02;9.20;;;;;;;;;;4954665;29;20043;-72
2021/04/21 15:44:58;;;;;;;12.25;9.20;;;;;;;;;;4954489;29;20047;-72
2021/04/21 15:47:24;;;;;;;14.73;10.32;;;;;;;;;;4954561;29;20575;-71
2021/04/21 15:49:50;;;;;;;22.50;16.20;;;;;;;;;;4954794;29;20035;-71
2021/04/21 15:52:16;;;;;;;15.55;11.60;;;;;;;;;;4954683;29;20547;-70
2021/04/21 15:54:42;;;;;;;19.70;11.90;;;;;;;;;;4954612;29;20380;-70
2021/04/21 15:57:09;;;;;;;22.90;16.70;;;;;;;;;;4954494;29;20027;-70
2021/04/21 15:59:37;;;;;;;20.20;11.07;;;;;;;;;;4954465;29;20455;-72
2021/04/21 16:02:06;;;;;;;15.13;10.95;;;;;;;;;;4961381;28;20376;-74
2021/04/21 16:04:50;;;;;;;16.92;11.20;;;;;;;;;;4956492;28;20043;-75
2021/04/21 16:07:25;;;;;;;22.15;13.95;;;;;;;;;;4922596;29;20489;-76
2021/04/21 16:09:51;;;;;;;20.55;12.10;;;;;;;;;;4920293;29;20032;-72
2021/04/21 16:12:17;;;;;;;17.05;12.15;;;;;;;;;;4919232;29;20031;-73
2021/04/21 16:14:44;;;;;;;16.40;11.27;;;;;;;;;;4922284;28;20438;-74
2021/04/21 16:17:10;;;;;;;15.63;11.02;;;;;;;;;;4976900;28;20038;-71
2021/04/21 16:19:36;;;;;;;20.27;12.32;;;;;;;;;;4977428;28;20018;-72
2021/04/21 16:22:02;;;;;;;21.50;12.60;;;;;;;;;;4977489;28;20030;-72
2021/04/21 16:24:28;;;;;;;17.67;11.57;;;;;;;;;;4959850;28;20062;-71
2021/04/21 16:26:54;;;;;;;20.60;13.43;;;;;;;;;;4976494;28;20038;-72
2021/04/21 16:29:20;;;;;;;20.50;13.35;;;;;;;;;;4959491;28;20057;-70
2021/04/21 16:31:46;;;;;;;20.95;12.88;;;;;;;;;;4959660;28;20026;-72
2021/04/21 16:34:13;;;;;;;22.45;13.43;;;;;;;;;;4959684;28;20134;-72
2021/04/21 16:36:39;;;;;;;23.48;15.85;;;;;;;;;;4959872;28;20435;-69
2021/04/21 16:39:05;;;;;;;33.75;18.92;;;;;;;;;;4976834;28;20034;-72
2021/04/21 16:41:31;;;;;;;29.55;19.27;;;;;;;;;;4959531;28;20035;-70
2021/04/21 17:21:34;;;;;;;29.60;14.32;;;;;;;;;;6120747;22;1097305;-71
2021/04/21 17:24:01;;;;;;;18.17;10.23;;;;;;;;;;6163426;23;20335;-71
2021/04/21 17:26:29;;;;;;;49.30;21.33;;;;;;;;;;6163715;23;20048;-69
2021/04/21 17:28:55;;;;;;;51.25;24.48;;;;;;;;;;6163780;23;20006;-68
2021/04/21 17:31:21;;;;;;;13.10;7.97;;;;;;;;;;6163829;23;20001;-68
2021/04/21 17:33:47;;;;;;;12.65;6.60;;;;;;;;;;6162441;23;20385;-68
2021/04/21 17:36:14;;;;;;;9.05;5.20;;;;;;;;;;6163702;23;20048;-70
2021/04/21 17:38:41;;;;;;;11.07;7.50;;;;;;;;;;6164020;23;20033;-70
2021/04/21 17:41:08;;;;;;;20.50;9.95;;;;;;;;;;6163723;23;20024;-70
2021/04/21 17:43:35;;;;;;;14.93;7.28;;;;;;;;;;6162338;23;20334;-72
2021/04/21 17:46:04;;;;;;;9.32;6.13;;;;;;;;;;6163822;23;20497;-75
2021/04/21 17:48:30;;;;;;;13.35;8.15;;;;;;;;;;6163846;23;20422;-70
2021/04/21 17:50:57;;;;;;;29.67;15.40;;;;;;;;;;6163853;23;20009;-73
2021/04/21 17:53:23;;;;;;;36.13;18.92;;;;;;;;;;6162756;23;20005;-70
2021/04/21 17:55:51;;;;;;;37.03;18.90;;;;;;;;;;6162552;23;20032;-73
2021/04/21 17:58:19;;;;;;;24.83;13.40;;;;;;;;;;6155854;23;20006;-72
2021/04/21 18:00:45;;;;;;;39.20;19.33;;;;;;;;;;6154204;23;20060;-70
2021/04/21 18:03:11;;;;;;;55.92;29.42;;;;;;;;;;6155827;23;20006;-71
2021/04/21 18:08:12;;;;;;;42.08;24.52;;;;;;;;;;6144855;23;20025;-72
2021/04/21 18:10:40;;;;;;;44.42;25.17;;;;;;;;;;6156412;23;20500;-74
2021/04/21 18:13:06;;;;;;;42.83;25.35;;;;;;;;;;6155606;23;20080;-72
2021/04/21 18:15:32;;;;;;;46.35;26.33;;;;;;;;;;6155461;23;20311;-73
2021/04/21 18:17:58;;;;;;;44.63;28.08;;;;;;;;;;6155327;23;20052;-73
2021/04/21 18:20:25;;;;;;;47.95;29.13;;;;;;;;;;6155355;23;20431;-72
2021/04/21 18:29:25;;;;;;;71.70;40.08;;;;;;;;;;6148857;23;20083;-74
2021/04/21 18:31:58;;;;;;;58.38;34.03;;;;;;;;;;6172813;23;20017;-72
2021/04/21 18:34:24;;;;;;;31.85;16.73;;;;;;;;;;6187876;23;20001;-74
2021/04/21 18:36:50;;;;;;;14.57;10.10;;;;;;;;;;6187553;23;20005;-74
2021/04/21 18:39:20;;;;;;;14.52;9.60;;;;;;;;;;6158841;23;20016;-74
2021/04/21 18:41:49;;;;;;;25.23;11.80;;;;;;;;;;6159911;23;20005;-74
2021/04/21 18:44:15;;;;;;;18.20;11.73;;;;;;;;;;6185261;23;20001;-75
2021/04/21 18:46:41;;;;;;;32.50;16.23;;;;;;;;;;6158622;23;20096;-76
2021/04/21 18:49:10;;;;;;;23.33;13.43;;;;;;;;;;6186418;23;20029;-75
2021/04/21 18:51:39;;;;;;;25.63;13.25;;;;;;;;;;6160050;23;20334;-77
2021/04/21 18:54:10;;;;;;;27.33;14.63;;;;;;;;;;6158104;23;20367;-76
2021/04/21 18:56:43;;;;;;;24.88;12.88;;;;;;;;;;6182631;23;20374;-75
2021/04/21 18:59:10;;;;;;;15.68;9.70;;;;;;;;;;6155976;23;20009;-74
2021/04/21 19:01:37;;;;;;;14.63;8.07;;;;;;;;;;6156886;23;20036;-74
2021/04/21 19:04:07;;;;;;;14.93;8.82;;;;;;;;;;6156887;23;20095;-76
2021/04/21 19:06:41;;;;;;;12.93;7.82;;;;;;;;;;6156890;23;20104;-74
2021/04/21 19:09:10;;;;;;;14.13;8.40;;;;;;;;;;6156061;23;20033;-73
2021/04/21 19:11:36;;;;;;;65.03;30.35;;;;;;;;;;6155670;23;20059;-72
2021/04/21 19:14:05;;;;;;;18.23;10.45;;;;;;;;;;6182156;23;20123;-73
2021/04/21 19:16:35;;;;;;;14.43;8.65;;;;;;;;;;6156127;23;20330;-71
2021/04/21 19:19:05;;;;;;;8.13;4.82;;;;;;;;;;6155882;23;20009;-74
2021/04/21 19:21:34;;;;;;;6.20;3.90;;;;;;;;;;6156468;23;20381;-73
2021/04/21 19:24:06;;;;;;;4.57;3.60;;;;;;;;;;6182206;23;20089;-77
2021/04/21 19:26:37;;;;;;;6.63;3.75;;;;;;;;;;6180324;23;20009;-74
2021/04/21 19:29:09;;;;;;;4.32;3.33;;;;;;;;;;6183842;23;20418;-73
2021/04/21 19:31:38;;;;;;;5.38;3.95;;;;;;;;;;6183952;23;20017;-75
2021/04/21 19:34:07;;;;;;;7.97;5.68;;;;;;;;;;6157663;23;20004;-76
2021/04/21 19:39:33;;;;;;;10.45;6.35;;;;;;;;;;6184198;23;20016;-76
2021/04/21 19:42:02;;;;;;;13.85;7.57;;;;;;;;;;6184413;23;20422;-75
2021/04/21 19:44:31;;;;;;;75.38;22.30;;;;;;;;;;6184728;23;20001;-73
